sensor_id;sensor_type;location;lat;lon;timestamp;temperature;humidity
4699;DHT22;33708;49.466;11.176;2023-02-07T00:00:40;-3.40;99.90
4699;DHT22;33708;49.466;11.176;2023-02-07T00:03:06;-3.40;99.90
4699;DHT22;33708;49.466;11.176;2023-02-07T00:05:31;-3.30;99.90
4699;DHT22;33708;49.466;11.176;2023-02-07T00:07:57;-3.40;99.90
4699;DHT22;33708;49.466;11.176;2023-02-07T00:10:22;-3.40;99.90
4699;DHT22;33708;49.466;11.176;2023-02-07T00:12:48;-3.40;99.90
4699;DHT22;33708;49.466;11.176;2023-02-07T00:15:14;-3.40;99.90
4699;DHT22;33708;49.466;11.176;2023-02-07T00:17:40;-3.40;99.90
4699;DHT22;33708;49.466;11.176;2023-02-07T00:20:06;-3.60;99.90
4699;DHT22;33708;49.466;11.176;2023-02-07T00:22:32;-3.60;99.90
4699;DHT22;33708;49.466;11.176;2023-02-07T00:24:57;-3.60;99.90
4699;DHT22;33708;49.466;11.176;2023-02-07T00:27:23;-3.70;99.90
4699;DHT22;33708;49.466;11.176;2023-02-07T00:29:49;-3.70;99.90
4699;DHT22;33708;49.466;11.176;2023-02-07T00:32:14;-3.80;99.90
4699;DHT22;33708;49.466;11.176;2023-02-07T00:34:40;-3.80;99.90
4699;DHT22;33708;49.466;11.176;2023-02-07T00:37:06;-3.80;99.90
4699;DHT22;33708;49.466;11.176;2023-02-07T00:39:32;-3.70;99.90
4699;DHT22;33708;49.466;11.176;2023-02-07T00:41:57;-3.70;99.90
4699;DHT22;33708;49.466;11.176;2023-02-07T00:44:23;-3.80;99.90
4699;DHT22;33708;49.466;11.176;2023-02-07T00:46:49;-3.90;99.90
4699;DHT22;33708;49.466;11.176;2023-02-07T00:49:14;-3.80;99.90
4699;DHT22;33708;49.466;11.176;2023-02-07T00:51:40;-3.90;99.90
4699;DHT22;33708;49.466;11.176;2023-02-07T00:54:06;-3.90;99.90
4699;DHT22;33708;49.466;11.176;2023-02-07T00:56:32;-3.90;99.90
4699;DHT22;33708;49.466;11.176;2023-02-07T00:58:58;-4.00;99.90
4699;DHT22;33708;49.466;11.176;2023-02-07T01:01:24;-4.10;99.90
4699;DHT22;33708;49.466;11.176;2023-02-07T01:03:52;-4.10;99.90
4699;DHT22;33708;49.466;11.176;2023-02-07T01:06:18;-4.10;99.90
4699;DHT22;33708;49.466;11.176;2023-02-07T01:08:44;-4.10;99.90
4699;DHT22;33708;49.466;11.176;2023-02-07T01:11:12;-4.00;99.90
4699;DHT22;33708;49.466;11.176;2023-02-07T01:13:39;-4.10;99.90
4699;DHT22;33708;49.466;11.176;2023-02-07T01:16:19;-4.10;99.90
4699;DHT22;33708;49.466;11.176;2023-02-07T01:18:45;-4.10;99.90
4699;DHT22;33708;49.466;11.176;2023-02-07T01:21:19;-4.20;99.90
4699;DHT22;33708;49.466;11.176;2023-02-07T01:23:45;-4.20;99.90
4699;DHT22;33708;49.466;11.176;2023-02-07T01:26:11;-4.20;99.90
4699;DHT22;33708;49.466;11.176;2023-02-07T01:28:37;-4.30;99.90
4699;DHT22;33708;49.466;11.176;2023-02-07T01:31:10;-4.30;99.90
4699;DHT22;33708;49.466;11.176;2023-02-07T01:33:36;-4.30;99.90
4699;DHT22;33708;49.466;11.176;2023-02-07T01:36:11;-4.30;99.90
4699;DHT22;33708;49.466;11.176;2023-02-07T01:38:37;-4.20;99.90
4699;DHT22;33708;49.466;11.176;2023-02-07T01:41:03;-4.30;99.90
4699;DHT22;33708;49.466;11.176;2023-02-07T01:43:29;-4.30;99.90
4699;DHT22;33708;49.466;11.176;2023-02-07T01:45:55;-4.30;99.90
4699;DHT22;33708;49.466;11.176;2023-02-07T01:48:34;-4.20;99.90
4699;DHT22;33708;49.466;11.176;2023-02-07T01:51:03;-4.30;99.90
4699;DHT22;33708;49.466;11.176;2023-02-07T01:53:34;-4.30;99.90
4699;DHT22;33708;49.466;11.176;2023-02-07T01:56:03;-4.30;99.90
4699;DHT22;33708;49.466;11.176;2023-02-07T01:58:32;-4.30;99.90
4699;DHT22;33708;49.466;11.176;2023-02-07T02:01:00;-4.40;99.90
4699;DHT22;33708;49.466;11.176;2023-02-07T02:03:26;-4.40;99.90
4699;DHT22;33708;49.466;11.176;2023-02-07T02:05:52;-4.30;99.90
4699;DHT22;33708;49.466;11.176;2023-02-07T02:08:22;-4.30;99.90
4699;DHT22;33708;49.466;11.176;2023-02-07T02:13:59;-4.40;99.90
4699;DHT22;33708;49.466;11.176;2023-02-07T02:16:45;-4.50;99.90
4699;DHT22;33708;49.466;11.176;2023-02-07T02:35:20;-4.80;99.90
4699;DHT22;33708;49.466;11.176;2023-02-07T02:41:07;-4.90;99.90
4699;DHT22;33708;49.466;11.176;2023-02-07T02:43:45;-5.00;99.90
4699;DHT22;33708;49.466;11.176;2023-02-07T02:46:19;-5.10;99.90
4699;DHT22;33708;49.466;11.176;2023-02-07T02:48:46;-5.10;99.90
4699;DHT22;33708;49.466;11.176;2023-02-07T02:51:12;-5.10;99.90
4699;DHT22;33708;49.466;11.176;2023-02-07T02:53:38;-5.10;99.90
4699;DHT22;33708;49.466;11.176;2023-02-07T02:56:12;-5.20;99.90
4699;DHT22;33708;49.466;11.176;2023-02-07T03:01:41;-5.20;99.90
4699;DHT22;33708;49.466;11.176;2023-02-07T03:04:35;-5.20;99.90
4699;DHT22;33708;49.466;11.176;2023-02-07T03:12:25;-5.50;99.90
4699;DHT22;33708;49.466;11.176;2023-02-07T03:15:05;-5.60;99.90
4699;DHT22;33708;49.466;11.176;2023-02-07T03:17:37;-5.60;99.90
4699;DHT22;33708;49.466;11.176;2023-02-07T03:20:19;-5.60;99.90
4699;DHT22;33708;49.466;11.176;2023-02-07T03:22:48;-5.70;99.90
4699;DHT22;33708;49.466;11.176;2023-02-07T03:25:16;-5.60;99.90
4699;DHT22;33708;49.466;11.176;2023-02-07T03:27:44;-5.70;99.90
4699;DHT22;33708;49.466;11.176;2023-02-07T03:30:14;-5.70;99.90
4699;DHT22;33708;49.466;11.176;2023-02-07T03:32:45;-5.60;99.90
4699;DHT22;33708;49.466;11.176;2023-02-07T03:35:36;-5.60;99.90
4699;DHT22;33708;49.466;11.176;2023-02-07T03:38:04;-5.60;99.90
4699;DHT22;33708;49.466;11.176;2023-02-07T03:40:44;-5.60;99.90
4699;DHT22;33708;49.466;11.176;2023-02-07T03:43:23;-5.40;99.90
4699;DHT22;33708;49.466;11.176;2023-02-07T03:45:49;-5.60;99.90
4699;DHT22;33708;49.466;11.176;2023-02-07T03:48:15;-5.60;99.90
4699;DHT22;33708;49.466;11.176;2023-02-07T03:50:40;-5.70;99.90
4699;DHT22;33708;49.466;11.176;2023-02-07T03:53:06;-5.70;99.90
4699;DHT22;33708;49.466;11.176;2023-02-07T03:55:32;-5.80;99.90
4699;DHT22;33708;49.466;11.176;2023-02-07T03:57:57;-5.80;99.90
4699;DHT22;33708;49.466;11.176;2023-02-07T04:00:23;-5.60;99.90
4699;DHT22;33708;49.466;11.176;2023-02-07T04:02:49;-5.50;99.90
4699;DHT22;33708;49.466;11.176;2023-02-07T04:05:15;-5.80;99.90
4699;DHT22;33708;49.466;11.176;2023-02-07T04:07:40;-5.90;99.90
4699;DHT22;33708;49.466;11.176;2023-02-07T04:10:06;-6.00;99.90
4699;DHT22;33708;49.466;11.176;2023-02-07T04:12:32;-5.90;99.90
4699;DHT22;33708;49.466;11.176;2023-02-07T04:14:59;-5.90;99.90
4699;DHT22;33708;49.466;11.176;2023-02-07T04:17:25;-5.90;99.90
4699;DHT22;33708;49.466;11.176;2023-02-07T04:19:51;-6.00;99.90
4699;DHT22;33708;49.466;11.176;2023-02-07T04:22:17;-6.20;99.90
4699;DHT22;33708;49.466;11.176;2023-02-07T04:24:42;-6.30;99.90
4699;DHT22;33708;49.466;11.176;2023-02-07T04:27:08;-6.40;99.90
4699;DHT22;33708;49.466;11.176;2023-02-07T04:29:34;-6.40;99.90
4699;DHT22;33708;49.466;11.176;2023-02-07T04:31:59;-6.40;99.90
4699;DHT22;33708;49.466;11.176;2023-02-07T04:34:25;-6.40;99.90
4699;DHT22;33708;49.466;11.176;2023-02-07T04:36:50;-6.40;99.90
4699;DHT22;33708;49.466;11.176;2023-02-07T04:39:16;-6.40;99.90
4699;DHT22;33708;49.466;11.176;2023-02-07T04:41:42;-6.50;99.90
4699;DHT22;33708;49.466;11.176;2023-02-07T04:44:07;-6.60;99.90
4699;DHT22;33708;49.466;11.176;2023-02-07T04:46:33;-6.70;99.90
4699;DHT22;33708;49.466;11.176;2023-02-07T04:48:59;-6.80;99.90
4699;DHT22;33708;49.466;11.176;2023-02-07T04:51:24;-6.70;99.90
4699;DHT22;33708;49.466;11.176;2023-02-07T04:53:50;-6.70;99.90
4699;DHT22;33708;49.466;11.176;2023-02-07T04:56:16;-6.80;99.90
4699;DHT22;33708;49.466;11.176;2023-02-07T04:58:41;-6.80;99.90
4699;DHT22;33708;49.466;11.176;2023-02-07T05:01:07;-6.80;99.90
4699;DHT22;33708;49.466;11.176;2023-02-07T05:03:33;-6.90;99.90
4699;DHT22;33708;49.466;11.176;2023-02-07T05:05:58;-6.90;99.90
4699;DHT22;33708;49.466;11.176;2023-02-07T05:08:24;-6.80;99.90
4699;DHT22;33708;49.466;11.176;2023-02-07T05:10:54;-6.90;99.90
4699;DHT22;33708;49.466;11.176;2023-02-07T05:13:20;-6.80;99.90
4699;DHT22;33708;49.466;11.176;2023-02-07T05:15:46;-6.80;99.90
4699;DHT22;33708;49.466;11.176;2023-02-07T05:18:11;-6.90;99.90
4699;DHT22;33708;49.466;11.176;2023-02-07T05:20:37;-6.80;99.90
4699;DHT22;33708;49.466;11.176;2023-02-07T05:23:03;-6.90;99.90
4699;DHT22;33708;49.466;11.176;2023-02-07T05:25:28;-6.80;99.90
4699;DHT22;33708;49.466;11.176;2023-02-07T05:27:54;-6.90;99.90
4699;DHT22;33708;49.466;11.176;2023-02-07T05:30:20;-6.90;99.90
4699;DHT22;33708;49.466;11.176;2023-02-07T05:32:46;-6.80;99.90
4699;DHT22;33708;49.466;11.176;2023-02-07T05:35:34;-6.70;99.90
4699;DHT22;33708;49.466;11.176;2023-02-07T05:38:00;-6.80;99.90
4699;DHT22;33708;49.466;11.176;2023-02-07T05:40:26;-6.80;99.90
4699;DHT22;33708;49.466;11.176;2023-02-07T05:42:53;-6.90;99.90
4699;DHT22;33708;49.466;11.176;2023-02-07T05:45:19;-6.90;99.90
4699;DHT22;33708;49.466;11.176;2023-02-07T05:47:45;-7.00;99.90
4699;DHT22;33708;49.466;11.176;2023-02-07T05:50:11;-7.00;99.90
4699;DHT22;33708;49.466;11.176;2023-02-07T05:52:36;-7.00;99.90
4699;DHT22;33708;49.466;11.176;2023-02-07T05:55:03;-7.10;99.90
4699;DHT22;33708;49.466;11.176;2023-02-07T05:57:29;-7.00;99.90
4699;DHT22;33708;49.466;11.176;2023-02-07T05:59:55;-6.90;99.90
4699;DHT22;33708;49.466;11.176;2023-02-07T06:02:21;-6.90;99.90
4699;DHT22;33708;49.466;11.176;2023-02-07T06:04:47;-6.80;99.90
4699;DHT22;33708;49.466;11.176;2023-02-07T06:07:12;-6.80;99.90
4699;DHT22;33708;49.466;11.176;2023-02-07T06:09:38;-6.80;99.90
4699;DHT22;33708;49.466;11.176;2023-02-07T06:12:03;-6.70;99.90
4699;DHT22;33708;49.466;11.176;2023-02-07T06:14:29;-6.90;99.90
4699;DHT22;33708;49.466;11.176;2023-02-07T06:16:55;-6.80;99.90
4699;DHT22;33708;49.466;11.176;2023-02-07T06:19:20;-6.70;99.90
4699;DHT22;33708;49.466;11.176;2023-02-07T06:21:46;-6.70;99.90
4699;DHT22;33708;49.466;11.176;2023-02-07T06:24:12;-6.70;99.90
4699;DHT22;33708;49.466;11.176;2023-02-07T06:26:37;-6.60;99.90
4699;DHT22;33708;49.466;11.176;2023-02-07T06:29:03;-6.60;99.90
4699;DHT22;33708;49.466;11.176;2023-02-07T06:31:29;-6.50;99.90
4699;DHT22;33708;49.466;11.176;2023-02-07T06:33:54;-6.40;99.90
4699;DHT22;33708;49.466;11.176;2023-02-07T06:36:20;-6.40;99.90
4699;DHT22;33708;49.466;11.176;2023-02-07T06:38:45;-6.30;99.90
4699;DHT22;33708;49.466;11.176;2023-02-07T06:41:11;-6.30;99.90
4699;DHT22;33708;49.466;11.176;2023-02-07T06:43:37;-6.30;99.90
4699;DHT22;33708;49.466;11.176;2023-02-07T06:46:03;-6.30;99.90
4699;DHT22;33708;49.466;11.176;2023-02-07T06:48:29;-6.20;99.90
4699;DHT22;33708;49.466;11.176;2023-02-07T06:50:55;-6.20;99.90
4699;DHT22;33708;49.466;11.176;2023-02-07T06:53:20;-6.20;99.90
4699;DHT22;33708;49.466;11.176;2023-02-07T06:55:46;-6.10;99.90
4699;DHT22;33708;49.466;11.176;2023-02-07T06:58:11;-6.10;99.90
4699;DHT22;33708;49.466;11.176;2023-02-07T07:00:37;-6.10;99.90
4699;DHT22;33708;49.466;11.176;2023-02-07T07:03:03;-6.00;99.90
4699;DHT22;33708;49.466;11.176;2023-02-07T07:05:29;-6.00;99.90
4699;DHT22;33708;49.466;11.176;2023-02-07T07:07:55;-6.00;99.90
4699;DHT22;33708;49.466;11.176;2023-02-07T07:10:21;-5.90;99.90
4699;DHT22;33708;49.466;11.176;2023-02-07T07:12:47;-5.70;99.90
4699;DHT22;33708;49.466;11.176;2023-02-07T07:15:13;-4.40;99.90
4699;DHT22;33708;49.466;11.176;2023-02-07T07:17:40;-3.20;99.90
4699;DHT22;33708;49.466;11.176;2023-02-07T07:20:06;-2.10;99.90
4699;DHT22;33708;49.466;11.176;2023-02-07T07:22:33;-1.70;99.90
4699;DHT22;33708;49.466;11.176;2023-02-07T07:24:59;-0.90;96.60
4699;DHT22;33708;49.466;11.176;2023-02-07T07:27:24;0.00;95.50
4699;DHT22;33708;49.466;11.176;2023-02-07T07:29:50;0.60;93.90
4699;DHT22;33708;49.466;11.176;2023-02-07T07:32:16;0.90;85.80
4699;DHT22;33708;49.466;11.176;2023-02-07T07:34:41;1.10;82.50
4699;DHT22;33708;49.466;11.176;2023-02-07T07:37:07;1.70;78.30
4699;DHT22;33708;49.466;11.176;2023-02-07T07:39:33;1.60;69.60
4699;DHT22;33708;49.466;11.176;2023-02-07T07:41:58;2.20;67.70
4699;DHT22;33708;49.466;11.176;2023-02-07T07:44:24;2.60;69.50
4699;DHT22;33708;49.466;11.176;2023-02-07T07:46:50;3.80;70.50
4699;DHT22;33708;49.466;11.176;2023-02-07T07:49:17;3.00;56.20
4699;DHT22;33708;49.466;11.176;2023-02-07T07:51:42;3.80;53.80
4699;DHT22;33708;49.466;11.176;2023-02-07T07:54:08;3.50;53.50
4699;DHT22;33708;49.466;11.176;2023-02-07T07:56:33;2.10;37.70
4699;DHT22;33708;49.466;11.176;2023-02-07T07:59:00;2.60;33.50
4699;DHT22;33708;49.466;11.176;2023-02-07T08:01:25;3.20;42.40
4699;DHT22;33708;49.466;11.176;2023-02-07T08:03:51;2.20;33.50
4699;DHT22;33708;49.466;11.176;2023-02-07T08:06:17;2.70;35.20
4699;DHT22;33708;49.466;11.176;2023-02-07T08:08:42;3.80;41.00
4699;DHT22;33708;49.466;11.176;2023-02-07T08:11:09;4.50;44.00
4699;DHT22;33708;49.466;11.176;2023-02-07T08:13:36;4.40;37.50
4699;DHT22;33708;49.466;11.176;2023-02-07T08:16:03;2.90;25.90
4699;DHT22;33708;49.466;11.176;2023-02-07T08:18:29;4.70;31.60
4699;DHT22;33708;49.466;11.176;2023-02-07T08:20:55;4.50;33.80
4699;DHT22;33708;49.466;11.176;2023-02-07T08:23:21;5.20;31.00
4699;DHT22;33708;49.466;11.176;2023-02-07T08:25:47;4.40;25.10
4699;DHT22;33708;49.466;11.176;2023-02-07T08:28:15;4.70;22.80
4699;DHT22;33708;49.466;11.176;2023-02-07T08:30:41;4.50;17.60
4699;DHT22;33708;49.466;11.176;2023-02-07T08:33:06;2.90;11.80
4699;DHT22;33708;49.466;11.176;2023-02-07T08:35:32;4.40;14.80
4699;DHT22;33708;49.466;11.176;2023-02-07T08:37:58;4.40;14.70
4699;DHT22;33708;49.466;11.176;2023-02-07T08:40:24;5.20;16.50
4699;DHT22;33708;49.466;11.176;2023-02-07T08:42:50;5.10;14.50
4699;DHT22;33708;49.466;11.176;2023-02-07T08:45:16;3.00;5.50
4699;DHT22;33708;49.466;11.176;2023-02-07T08:47:45;2.40;1.00
4699;DHT22;33708;49.466;11.176;2023-02-07T08:50:13;3.80;4.70
4699;DHT22;33708;49.466;11.176;2023-02-07T08:52:38;3.20;2.50
4699;DHT22;33708;49.466;11.176;2023-02-07T08:55:05;3.60;2.80
4699;DHT22;33708;49.466;11.176;2023-02-07T08:57:31;4.60;8.70
4699;DHT22;33708;49.466;11.176;2023-02-07T08:59:57;4.70;8.40
4699;DHT22;33708;49.466;11.176;2023-02-07T09:02:24;4.60;2.20
4699;DHT22;33708;49.466;11.176;2023-02-07T09:04:50;3.80;1.00
4699;DHT22;33708;49.466;11.176;2023-02-07T09:07:16;3.30;1.00
4699;DHT22;33708;49.466;11.176;2023-02-07T09:09:42;3.90;10.10
4699;DHT22;33708;49.466;11.176;2023-02-07T09:12:09;3.90;1.00
4699;DHT22;33708;49.466;11.176;2023-02-07T09:14:35;4.00;1.00
4699;DHT22;33708;49.466;11.176;2023-02-07T09:17:01;3.50;1.00
4699;DHT22;33708;49.466;11.176;2023-02-07T09:19:27;2.80;1.00
4699;DHT22;33708;49.466;11.176;2023-02-07T09:21:52;2.80;1.00
4699;DHT22;33708;49.466;11.176;2023-02-07T09:24:18;3.60;1.00
4699;DHT22;33708;49.466;11.176;2023-02-07T09:26:45;4.00;1.00
4699;DHT22;33708;49.466;11.176;2023-02-07T09:29:12;3.20;1.00
4699;DHT22;33708;49.466;11.176;2023-02-07T09:31:38;2.60;1.00
4699;DHT22;33708;49.466;11.176;2023-02-07T09:34:04;1.90;1.00
4699;DHT22;33708;49.466;11.176;2023-02-07T09:36:30;0.30;1.00
4699;DHT22;33708;49.466;11.176;2023-02-07T09:38:58;-0.10;1.00
4699;DHT22;33708;49.466;11.176;2023-02-07T09:44:25;-1.00;1.00
4699;DHT22;33708;49.466;11.176;2023-02-07T09:47:09;-1.30;1.00
4699;DHT22;33708;49.466;11.176;2023-02-07T09:55:27;-0.90;1.00
4699;DHT22;33708;49.466;11.176;2023-02-07T09:58:06;-0.80;1.00
4699;DHT22;33708;49.466;11.176;2023-02-07T10:00:35;-0.90;1.00
4699;DHT22;33708;49.466;11.176;2023-02-07T10:03:14;-1.10;1.00
4699;DHT22;33708;49.466;11.176;2023-02-07T10:08:13;-1.40;1.00
4699;DHT22;33708;49.466;11.176;2023-02-07T10:10:44;-1.30;1.00
4699;DHT22;33708;49.466;11.176;2023-02-07T10:19:01;-1.00;1.00
4699;DHT22;33708;49.466;11.176;2023-02-07T10:30:34;-0.40;1.00
4699;DHT22;33708;49.466;11.176;2023-02-07T10:33:11;-0.40;1.00
4699;DHT22;33708;49.466;11.176;2023-02-07T10:35:38;-0.40;1.00
4699;DHT22;33708;49.466;11.176;2023-02-07T10:38:27;-0.20;1.00
4699;DHT22;33708;49.466;11.176;2023-02-07T10:41:02;-0.20;1.00
4699;DHT22;33708;49.466;11.176;2023-02-07T10:43:32;-0.20;1.00
4699;DHT22;33708;49.466;11.176;2023-02-07T10:46:05;-0.20;1.00
4699;DHT22;33708;49.466;11.176;2023-02-07T10:48:34;-0.30;1.00
4699;DHT22;33708;49.466;11.176;2023-02-07T10:51:02;-0.30;1.00
4699;DHT22;33708;49.466;11.176;2023-02-07T10:53:49;-0.10;1.00
4699;DHT22;33708;49.466;11.176;2023-02-07T10:56:19;0.10;1.00
4699;DHT22;33708;49.466;11.176;2023-02-07T10:58:47;0.00;1.00
4699;DHT22;33708;49.466;11.176;2023-02-07T11:01:22;0.10;1.00
4699;DHT22;33708;49.466;11.176;2023-02-07T11:03:49;0.20;1.00
4699;DHT22;33708;49.466;11.176;2023-02-07T11:06:32;0.30;1.00
4699;DHT22;33708;49.466;11.176;2023-02-07T11:09:20;0.40;1.00
4699;DHT22;33708;49.466;11.176;2023-02-07T11:11:49;0.40;1.00
4699;DHT22;33708;49.466;11.176;2023-02-07T11:14:17;0.30;1.00
4699;DHT22;33708;49.466;11.176;2023-02-07T11:16:46;0.60;1.00
4699;DHT22;33708;49.466;11.176;2023-02-07T11:19:21;0.60;1.00
4699;DHT22;33708;49.466;11.176;2023-02-07T11:21:48;0.60;1.00
4699;DHT22;33708;49.466;11.176;2023-02-07T11:24:19;0.70;1.00
4699;DHT22;33708;49.466;11.176;2023-02-07T11:27:05;0.50;1.00
4699;DHT22;33708;49.466;11.176;2023-02-07T11:29:37;0.90;1.00
4699;DHT22;33708;49.466;11.176;2023-02-07T11:32:06;0.90;1.00
4699;DHT22;33708;49.466;11.176;2023-02-07T11:37:31;1.10;1.00
4699;DHT22;33708;49.466;11.176;2023-02-07T11:41:01;1.30;1.00
4699;DHT22;33708;49.466;11.176;2023-02-07T11:43:10;1.20;1.00
4699;DHT22;33708;49.466;11.176;2023-02-07T11:45:38;1.50;1.00
4699;DHT22;33708;49.466;11.176;2023-02-07T11:48:17;1.60;1.00
4699;DHT22;33708;49.466;11.176;2023-02-07T11:50:46;1.60;1.00
4699;DHT22;33708;49.466;11.176;2023-02-07T11:53:37;1.60;1.00
4699;DHT22;33708;49.466;11.176;2023-02-07T11:56:04;1.90;1.00
4699;DHT22;33708;49.466;11.176;2023-02-07T11:58:36;2.00;1.00
4699;DHT22;33708;49.466;11.176;2023-02-07T12:01:04;2.00;1.00
4699;DHT22;33708;49.466;11.176;2023-02-07T12:03:55;1.90;1.00
4699;DHT22;33708;49.466;11.176;2023-02-07T12:06:39;2.20;1.00
4699;DHT22;33708;49.466;11.176;2023-02-07T12:09:16;2.10;1.00
4699;DHT22;33708;49.466;11.176;2023-02-07T12:11:45;2.00;1.00
4699;DHT22;33708;49.466;11.176;2023-02-07T12:14:18;1.90;1.00
4699;DHT22;33708;49.466;11.176;2023-02-07T12:16:52;2.40;1.00
4699;DHT22;33708;49.466;11.176;2023-02-07T12:22:17;2.00;1.00
4699;DHT22;33708;49.466;11.176;2023-02-07T12:25:31;2.00;1.00
4699;DHT22;33708;49.466;11.176;2023-02-07T12:27:39;1.90;1.00
4699;DHT22;33708;49.466;11.176;2023-02-07T12:35:48;2.00;1.00
4699;DHT22;33708;49.466;11.176;2023-02-07T12:38:25;1.60;1.00
4699;DHT22;33708;49.466;11.176;2023-02-07T12:44:29;1.80;1.00
4699;DHT22;33708;49.466;11.176;2023-02-07T12:50:02;1.70;1.00
4699;DHT22;33708;49.466;11.176;2023-02-07T12:55:32;1.70;1.00
4699;DHT22;33708;49.466;11.176;2023-02-07T12:58:19;1.80;1.00
4699;DHT22;33708;49.466;11.176;2023-02-07T13:01:00;1.70;1.00
4699;DHT22;33708;49.466;11.176;2023-02-07T13:06:46;1.80;1.00
4699;DHT22;33708;49.466;11.176;2023-02-07T13:11:53;1.80;1.00
4699;DHT22;33708;49.466;11.176;2023-02-07T13:14:30;1.80;1.00
4699;DHT22;33708;49.466;11.176;2023-02-07T13:19:49;1.80;1.00
4699;DHT22;33708;49.466;11.176;2023-02-07T13:25:00;1.80;1.00
4699;DHT22;33708;49.466;11.176;2023-02-07T13:27:28;1.90;1.00
4699;DHT22;33708;49.466;11.176;2023-02-07T13:29:55;1.80;1.00
4699;DHT22;33708;49.466;11.176;2023-02-07T13:32:24;1.90;1.00
4699;DHT22;33708;49.466;11.176;2023-02-07T13:41:04;2.00;1.00
4699;DHT22;33708;49.466;11.176;2023-02-07T13:43:57;2.00;1.00
4699;DHT22;33708;49.466;11.176;2023-02-07T13:51:58;2.00;1.00
4699;DHT22;33708;49.466;11.176;2023-02-07T13:57:20;2.10;1.00
4699;DHT22;33708;49.466;11.176;2023-02-07T14:00:21;2.10;1.00
4699;DHT22;33708;49.466;11.176;2023-02-07T14:02:55;2.10;1.00
4699;DHT22;33708;49.466;11.176;2023-02-07T14:05:32;2.00;1.00
4699;DHT22;33708;49.466;11.176;2023-02-07T14:08:04;1.90;1.00
4699;DHT22;33708;49.466;11.176;2023-02-07T14:10:54;2.00;1.00
4699;DHT22;33708;49.466;11.176;2023-02-07T14:24:01;2.10;1.00
4699;DHT22;33708;49.466;11.176;2023-02-07T14:31:56;2.10;1.00
4699;DHT22;33708;49.466;11.176;2023-02-07T14:34:23;2.20;1.00
4699;DHT22;33708;49.466;11.176;2023-02-07T14:36:52;2.10;1.00
4699;DHT22;33708;49.466;11.176;2023-02-07T14:41:49;2.20;1.00
4699;DHT22;33708;49.466;11.176;2023-02-07T14:44:37;2.10;1.00
4699;DHT22;33708;49.466;11.176;2023-02-07T14:47:05;1.90;1.00
4699;DHT22;33708;49.466;11.176;2023-02-07T14:52:04;1.90;1.00
4699;DHT22;33708;49.466;11.176;2023-02-07T14:54:46;1.90;1.00
4699;DHT22;33708;49.466;11.176;2023-02-07T15:03:00;1.90;1.00
4699;DHT22;33708;49.466;11.176;2023-02-07T15:05:33;1.90;1.00
4699;DHT22;33708;49.466;11.176;2023-02-07T15:10:33;1.90;1.00
4699;DHT22;33708;49.466;11.176;2023-02-07T15:13:02;2.00;1.00
4699;DHT22;33708;49.466;11.176;2023-02-07T15:15:45;2.00;1.00
4699;DHT22;33708;49.466;11.176;2023-02-07T15:18:13;1.90;1.00
4699;DHT22;33708;49.466;11.176;2023-02-07T15:20:40;1.90;1.00
4699;DHT22;33708;49.466;11.176;2023-02-07T15:23:12;1.90;1.00
4699;DHT22;33708;49.466;11.176;2023-02-07T15:25:41;1.90;1.00
4699;DHT22;33708;49.466;11.176;2023-02-07T15:28:21;1.90;1.00
4699;DHT22;33708;49.466;11.176;2023-02-07T15:31:02;1.90;1.00
4699;DHT22;33708;49.466;11.176;2023-02-07T15:33:37;1.90;1.00
4699;DHT22;33708;49.466;11.176;2023-02-07T15:36:05;1.80;1.00
4699;DHT22;33708;49.466;11.176;2023-02-07T15:38:31;1.70;1.00
4699;DHT22;33708;49.466;11.176;2023-02-07T15:40:57;1.70;1.00
4699;DHT22;33708;49.466;11.176;2023-02-07T15:43:33;1.70;1.00
4699;DHT22;33708;49.466;11.176;2023-02-07T15:46:03;1.70;1.00
4699;DHT22;33708;49.466;11.176;2023-02-07T15:48:30;1.80;1.00
4699;DHT22;33708;49.466;11.176;2023-02-07T15:51:00;1.80;1.00
4699;DHT22;33708;49.466;11.176;2023-02-07T15:53:28;1.80;1.00
4699;DHT22;33708;49.466;11.176;2023-02-07T15:55:55;1.80;1.00
4699;DHT22;33708;49.466;11.176;2023-02-07T15:58:27;1.80;1.00
4699;DHT22;33708;49.466;11.176;2023-02-07T16:00:59;1.80;1.00
4699;DHT22;33708;49.466;11.176;2023-02-07T16:03:30;1.70;1.00
4699;DHT22;33708;49.466;11.176;2023-02-07T16:06:07;1.60;1.00
4699;DHT22;33708;49.466;11.176;2023-02-07T16:16:34;1.30;1.00
4699;DHT22;33708;49.466;11.176;2023-02-07T16:19:07;1.20;1.00
4699;DHT22;33708;49.466;11.176;2023-02-07T16:21:33;1.00;1.00
4699;DHT22;33708;49.466;11.176;2023-02-07T16:24:15;0.80;1.00
4699;DHT22;33708;49.466;11.176;2023-02-07T16:26:42;0.60;1.00
4699;DHT22;33708;49.466;11.176;2023-02-07T16:29:19;0.40;1.00
4699;DHT22;33708;49.466;11.176;2023-02-07T16:31:45;0.20;1.00
4699;DHT22;33708;49.466;11.176;2023-02-07T16:34:13;0.00;1.00
4699;DHT22;33708;49.466;11.176;2023-02-07T16:36:39;-0.20;1.00
4699;DHT22;33708;49.466;11.176;2023-02-07T16:39:05;-0.30;1.00
4699;DHT22;33708;49.466;11.176;2023-02-07T16:41:33;-0.40;1.00
4699;DHT22;33708;49.466;11.176;2023-02-07T16:44:01;-0.40;1.00
4699;DHT22;33708;49.466;11.176;2023-02-07T16:46:28;-0.50;1.00
4699;DHT22;33708;49.466;11.176;2023-02-07T16:48:54;-0.60;1.00
4699;DHT22;33708;49.466;11.176;2023-02-07T16:51:20;-0.70;1.00
4699;DHT22;33708;49.466;11.176;2023-02-07T16:53:45;-0.80;1.00
4699;DHT22;33708;49.466;11.176;2023-02-07T16:56:13;-0.90;1.00
4699;DHT22;33708;49.466;11.176;2023-02-07T16:58:40;-1.10;1.00
4699;DHT22;33708;49.466;11.176;2023-02-07T17:01:06;-1.20;1.00
4699;DHT22;33708;49.466;11.176;2023-02-07T17:03:32;-1.20;1.00
4699;DHT22;33708;49.466;11.176;2023-02-07T17:05:58;-1.30;1.00
4699;DHT22;33708;49.466;11.176;2023-02-07T17:08:23;-1.30;1.00
4699;DHT22;33708;49.466;11.176;2023-02-07T17:10:58;-1.40;1.00
4699;DHT22;33708;49.466;11.176;2023-02-07T17:13:24;-1.50;1.00
4699;DHT22;33708;49.466;11.176;2023-02-07T17:15:50;-1.50;1.00
4699;DHT22;33708;49.466;11.176;2023-02-07T17:18:16;-1.60;1.00
4699;DHT22;33708;49.466;11.176;2023-02-07T17:20:42;-1.60;1.00
4699;DHT22;33708;49.466;11.176;2023-02-07T17:23:07;-1.70;1.00
4699;DHT22;33708;49.466;11.176;2023-02-07T17:25:33;-1.70;1.00
4699;DHT22;33708;49.466;11.176;2023-02-07T17:27:59;-1.80;1.00
4699;DHT22;33708;49.466;11.176;2023-02-07T17:30:37;-1.90;1.00
4699;DHT22;33708;49.466;11.176;2023-02-07T17:33:07;-1.80;1.00
4699;DHT22;33708;49.466;11.176;2023-02-07T17:35:33;-1.70;1.00
4699;DHT22;33708;49.466;11.176;2023-02-07T17:37:59;-1.80;1.00
4699;DHT22;33708;49.466;11.176;2023-02-07T17:40:29;-1.90;1.00
4699;DHT22;33708;49.466;11.176;2023-02-07T17:42:55;-2.00;1.00
4699;DHT22;33708;49.466;11.176;2023-02-07T17:45:21;-2.10;1.00
4699;DHT22;33708;49.466;11.176;2023-02-07T17:47:47;-2.10;1.00
4699;DHT22;33708;49.466;11.176;2023-02-07T17:50:33;-2.10;1.00
4699;DHT22;33708;49.466;11.176;2023-02-07T17:52:59;-2.20;1.00
4699;DHT22;33708;49.466;11.176;2023-02-07T17:55:29;-2.30;1.00
4699;DHT22;33708;49.466;11.176;2023-02-07T17:57:55;-2.30;1.00
4699;DHT22;33708;49.466;11.176;2023-02-07T18:00:24;-2.30;1.00
4699;DHT22;33708;49.466;11.176;2023-02-07T18:02:50;-2.40;1.00
4699;DHT22;33708;49.466;11.176;2023-02-07T18:05:16;-2.30;1.00
4699;DHT22;33708;49.466;11.176;2023-02-07T18:07:43;-2.40;1.00
4699;DHT22;33708;49.466;11.176;2023-02-07T18:10:13;-2.40;1.00
4699;DHT22;33708;49.466;11.176;2023-02-07T18:12:41;-2.40;1.00
4699;DHT22;33708;49.466;11.176;2023-02-07T18:15:07;-2.50;1.00
4699;DHT22;33708;49.466;11.176;2023-02-07T18:17:34;-2.60;1.00